createdAt,value
2023-04-08T00:02:07.477Z,2.47
2023-04-08T00:04:56.167Z,2.70
2023-04-08T00:07:44.623Z,2.60
2023-04-08T00:10:32.915Z,2.33
2023-04-08T00:13:21.222Z,2.50
2023-04-08T00:16:09.573Z,3.03
2023-04-08T00:18:59.286Z,2.80
2023-04-08T00:21:47.786Z,2.90
2023-04-08T00:24:36.304Z,2.53
2023-04-08T00:27:25.920Z,2.83
2023-04-08T00:30:15.478Z,3.00
2023-04-08T00:33:04.603Z,3.10
2023-04-08T00:35:54.262Z,3.80
2023-04-08T00:38:42.508Z,2.80
2023-04-08T00:41:31.144Z,3.63
2023-04-08T00:44:19.411Z,4.00
2023-04-08T00:47:07.661Z,3.30
2023-04-08T00:49:55.980Z,3.93
2023-04-08T00:52:45.597Z,3.77
2023-04-08T00:55:33.883Z,3.83
2023-04-08T00:58:22.240Z,4.27
2023-04-08T01:01:19.930Z,3.87
2023-04-08T01:04:16.308Z,4.50
2023-04-08T01:07:12.046Z,3.87
2023-04-08T01:10:07.667Z,5.03
2023-04-08T01:12:57.488Z,4.57
2023-04-08T01:15:47.360Z,4.70
2023-04-08T01:18:37.645Z,4.70
2023-04-08T01:21:27.168Z,5.00
2023-04-08T01:24:24.623Z,4.83
2023-04-08T01:27:16.560Z,4.90
2023-04-08T01:30:06.702Z,5.20
2023-04-08T01:32:56.798Z,5.50
2023-04-08T01:35:46.687Z,5.40
2023-04-08T01:38:36.030Z,5.50
2023-04-08T01:41:24.585Z,5.40
2023-04-08T01:44:16.935Z,5.37
2023-04-08T01:47:05.484Z,5.60
2023-04-08T01:49:54.753Z,5.43
2023-04-08T01:52:45.529Z,5.53
2023-04-08T01:55:34.307Z,5.90
2023-04-08T01:58:23.859Z,5.67
2023-04-08T02:01:18.336Z,5.80
2023-04-08T02:04:06.994Z,5.73
2023-04-08T02:06:55.322Z,6.00
2023-04-08T02:09:43.619Z,5.80
2023-04-08T02:12:32.294Z,6.27
2023-04-08T02:15:20.958Z,6.30
2023-04-08T02:18:17.218Z,6.80
2023-04-08T02:21:12.484Z,6.70
2023-04-08T02:24:03.862Z,6.43
2023-04-08T02:26:53.651Z,6.30
2023-04-08T02:29:43.762Z,6.30
2023-04-08T02:32:33.832Z,6.37
2023-04-08T02:35:24.799Z,6.70
2023-04-08T02:38:13.487Z,6.53
2023-04-08T02:41:01.961Z,6.50
2023-04-08T02:43:55.559Z,6.43
2023-04-08T02:46:43.805Z,7.40
2023-04-08T02:49:32.076Z,6.77
2023-04-08T02:52:22.280Z,6.70
2023-04-08T02:55:11.252Z,6.77
2023-04-08T02:57:59.587Z,7.50
2023-04-08T03:00:47.893Z,6.63
2023-04-08T03:03:36.781Z,8.10
2023-04-08T03:06:25.934Z,7.00
2023-04-08T03:09:15.668Z,7.00
2023-04-08T03:12:04.051Z,7.20
2023-04-08T03:14:52.318Z,6.57
2023-04-08T03:17:41.053Z,6.83
2023-04-08T03:20:29.377Z,6.40
2023-04-08T03:23:17.596Z,7.10
2023-04-08T03:26:07.396Z,7.00
2023-04-08T03:28:55.741Z,7.97
2023-04-08T03:31:45.124Z,7.47
2023-04-08T03:34:34.925Z,7.00
2023-04-08T03:37:23.136Z,6.73
2023-04-08T03:40:12.638Z,6.60
2023-04-08T03:43:02.309Z,7.00
2023-04-08T03:45:50.763Z,6.90
2023-04-08T03:48:39.093Z,7.13
2023-04-08T03:51:27.434Z,6.93
2023-04-08T03:54:15.765Z,7.00
2023-04-08T03:57:04.044Z,7.93
2023-04-08T03:59:53.941Z,7.40
2023-04-08T04:02:44.940Z,6.63
2023-04-08T04:05:33.394Z,7.83
2023-04-08T04:08:21.665Z,8.17
2023-04-08T04:11:10.012Z,7.50
2023-04-08T04:13:58.361Z,7.97
2023-04-08T04:16:48.096Z,7.33
2023-04-08T04:19:36.824Z,7.67
2023-04-08T04:22:25.638Z,7.70
2023-04-08T04:25:13.899Z,6.93
2023-04-08T04:28:02.901Z,8.37
2023-04-08T04:30:51.236Z,7.80
2023-04-08T04:33:40.942Z,7.47
2023-04-08T04:36:29.185Z,7.80
2023-04-08T04:39:17.564Z,7.60
2023-04-08T04:42:06.691Z,9.13
2023-04-08T04:44:55.452Z,8.17
2023-04-08T04:47:43.747Z,7.90
2023-04-08T04:50:33.573Z,7.60
2023-04-08T04:53:21.853Z,8.23
2023-04-08T04:56:10.201Z,8.00
2023-04-08T04:58:58.489Z,8.10
2023-04-08T05:01:46.888Z,8.27
2023-04-08T05:04:36.148Z,8.23
2023-04-08T05:07:26.237Z,7.80
2023-04-08T05:10:14.468Z,7.90
2023-04-08T05:13:02.646Z,8.20
2023-04-08T05:15:50.969Z,7.93
2023-04-08T05:18:39.232Z,8.23
2023-04-08T05:21:28.258Z,8.17
2023-04-08T05:24:17.861Z,8.33
2023-04-08T05:27:06.633Z,8.47
2023-04-08T05:29:54.941Z,8.50
2023-04-08T05:32:43.248Z,8.60
2023-04-08T05:35:31.656Z,8.80
2023-04-08T05:38:19.941Z,8.40
2023-04-08T05:41:09.642Z,9.67
2023-04-08T05:43:58.061Z,8.53
2023-04-08T05:46:46.318Z,8.60
2023-04-08T05:49:35.891Z,8.53
2023-04-08T05:52:24.139Z,9.17
2023-04-08T05:55:13.153Z,8.80
2023-04-08T05:58:02.976Z,9.00
2023-04-08T06:00:51.606Z,9.23
2023-04-08T06:03:40.643Z,9.10
2023-04-08T06:06:29.163Z,9.23
2023-04-08T06:09:17.385Z,9.73
2023-04-08T06:12:06.334Z,9.90
2023-04-08T06:14:57.220Z,9.40
2023-04-08T06:17:45.645Z,9.03
2023-04-08T06:20:34.063Z,10.13
2023-04-08T06:23:22.558Z,10.43
2023-04-08T06:26:10.890Z,10.40
2023-04-08T06:28:59.263Z,9.03
2023-04-08T06:31:48.902Z,9.63
2023-04-08T06:34:37.146Z,9.60
2023-04-08T06:37:25.586Z,10.00
2023-04-08T06:40:13.890Z,9.50
2023-04-08T06:43:02.191Z,10.20
2023-04-08T06:45:52.177Z,10.60
2023-04-08T06:48:41.743Z,9.93
2023-04-08T06:51:29.986Z,10.90
2023-04-08T06:54:18.246Z,9.80
2023-04-08T06:57:06.609Z,10.63
2023-04-08T06:59:55.068Z,10.90
2023-04-08T07:02:43.680Z,11.07
2023-04-08T07:05:33.359Z,11.13
2023-04-08T07:08:21.719Z,10.50
2023-04-08T07:11:10.096Z,10.30
2023-04-08T07:13:58.344Z,10.80
2023-04-08T07:16:46.717Z,10.80
2023-04-08T07:19:35.028Z,11.10
2023-04-08T07:22:24.906Z,10.90
2023-04-08T07:25:13.268Z,10.40
2023-04-08T07:28:01.566Z,11.73
2023-04-08T07:30:49.910Z,11.63
2023-04-08T07:33:38.269Z,11.37
2023-04-08T07:36:26.613Z,11.10
2023-04-08T07:39:16.314Z,10.50
2023-04-08T07:42:04.651Z,11.30
2023-04-08T07:44:53.319Z,11.40
2023-04-08T07:47:41.727Z,11.90
2023-04-08T07:50:30.051Z,10.93
2023-04-08T07:53:18.984Z,10.27
2023-04-08T07:56:14.708Z,10.63
2023-04-08T07:59:03.103Z,10.53
2023-04-08T08:01:51.365Z,10.90
2023-04-08T08:04:40.079Z,10.80
2023-04-08T08:07:28.594Z,10.30
2023-04-08T08:10:17.170Z,10.57
2023-04-08T08:13:08.498Z,8.93
2023-04-08T08:15:57.270Z,9.17
2023-04-08T08:18:45.596Z,8.87
2023-04-08T08:21:33.942Z,9.30
2023-04-08T08:24:22.320Z,10.30
2023-04-08T08:27:11.978Z,10.10
2023-04-08T08:30:01.912Z,10.00
2023-04-08T08:32:52.233Z,9.83
2023-04-08T08:35:40.551Z,10.27
2023-04-08T08:38:29.069Z,9.50
2023-04-08T08:41:17.328Z,10.20
2023-04-08T08:44:07.811Z,10.30
2023-04-08T08:46:58.027Z,11.07
2023-04-08T08:49:46.864Z,10.00
2023-04-08T08:52:35.215Z,10.73
2023-04-08T08:58:14.977Z,10.57
2023-04-08T09:01:03.308Z,11.43
2023-04-08T09:04:12.404Z,11.00
2023-04-08T09:07:11.374Z,11.37
2023-04-08T09:10:00.744Z,11.07
2023-04-08T09:12:56.927Z,11.50
2023-04-08T09:16:03.586Z,10.90
2023-04-08T09:18:53.290Z,10.67
2023-04-08T09:21:41.794Z,10.80
2023-04-08T09:24:32.073Z,10.30
2023-04-08T09:27:35.561Z,11.57
2023-04-08T09:30:25.904Z,11.50
2023-04-08T09:33:14.731Z,11.20
2023-04-08T09:36:05.366Z,10.67
2023-04-08T09:38:54.919Z,10.97
2023-04-08T09:41:44.943Z,10.80
2023-04-08T09:44:35.979Z,12.40
2023-04-08T09:47:29.413Z,11.30
2023-04-08T09:50:21.270Z,11.50
2023-04-08T09:53:15.524Z,11.77
2023-04-08T09:56:08.855Z,11.63
2023-04-08T09:59:05.824Z,11.83
2023-04-08T10:01:57.012Z,11.80
2023-04-08T10:04:50.404Z,12.17
2023-04-08T10:07:38.862Z,11.90
2023-04-08T10:10:28.992Z,11.03
2023-04-08T10:13:17.875Z,11.80
2023-04-08T10:16:24.481Z,11.37
2023-04-08T10:19:40.447Z,11.37
2023-04-08T10:22:47.970Z,10.23
2023-04-08T10:25:38.417Z,10.53
2023-04-08T10:28:28.065Z,10.93
2023-04-08T10:31:23.634Z,10.30
2023-04-08T10:34:17.788Z,10.70
2023-04-08T10:37:09.107Z,10.20
2023-04-08T10:39:57.495Z,10.43
2023-04-08T10:42:47.263Z,10.90
2023-04-08T10:45:35.785Z,10.57
2023-04-08T10:48:25.682Z,10.73
2023-04-08T10:51:14.062Z,10.50
2023-04-08T10:54:07.410Z,10.30
2023-04-08T10:56:55.722Z,10.73
2023-04-08T10:59:46.627Z,10.50
2023-04-08T11:02:35.231Z,10.60
2023-04-08T11:05:24.180Z,10.07
2023-04-08T11:08:12.670Z,10.33
2023-04-08T11:11:01.687Z,10.20
2023-04-08T11:13:53.846Z,10.97
2023-04-08T11:16:44.236Z,10.50
2023-04-08T11:19:32.514Z,10.60
2023-04-08T11:22:21.770Z,10.17
2023-04-08T11:25:10.740Z,10.30
2023-04-08T11:28:00.375Z,10.37
2023-04-08T11:30:49.642Z,10.13
2023-04-08T11:33:39.433Z,9.53
2023-04-08T11:36:30.202Z,10.20
2023-04-08T11:39:18.854Z,9.43
2023-04-08T11:42:07.129Z,10.30
2023-04-08T11:44:55.457Z,9.60
2023-04-08T11:47:44.135Z,9.13
2023-04-08T11:50:33.857Z,8.73
2023-04-08T11:53:23.656Z,8.90
2023-04-08T11:56:18.806Z,9.20
2023-04-08T11:59:07.137Z,8.93
2023-04-08T12:01:55.568Z,9.00
2023-04-08T12:04:43.917Z,8.40
2023-04-08T12:07:33.892Z,7.97
2023-04-08T12:10:22.706Z,8.90
2023-04-08T12:13:11.557Z,8.20
2023-04-08T12:16:00.155Z,8.50
2023-04-08T12:18:48.950Z,8.57
2023-04-08T12:21:38.336Z,8.90
2023-04-08T12:24:28.159Z,8.47
2023-04-08T12:27:16.832Z,8.20
2023-04-08T12:30:06.213Z,8.90
2023-04-08T12:32:55.477Z,8.73
2023-04-08T12:35:43.958Z,7.80
2023-04-08T12:38:33.660Z,7.93
2023-04-08T12:41:23.497Z,8.30
2023-04-08T12:44:11.816Z,7.80
2023-04-08T12:47:00.215Z,7.37
2023-04-08T12:49:50.170Z,7.20
2023-04-08T12:52:38.636Z,6.90
2023-04-08T12:55:27.019Z,6.17
2023-04-08T12:58:17.027Z,6.27
2023-04-08T13:01:06.353Z,7.00
2023-04-08T13:03:55.178Z,5.90
2023-04-08T13:06:43.588Z,6.43
2023-04-08T13:09:32.225Z,5.83
2023-04-08T13:12:20.531Z,5.60
2023-04-08T13:15:11.817Z,5.63
2023-04-08T13:18:00.251Z,5.43
2023-04-08T13:20:48.659Z,5.53
2023-04-08T13:23:37.472Z,5.50
2023-04-08T13:26:26.709Z,5.70
2023-04-08T13:29:15.027Z,5.70
2023-04-08T13:32:04.884Z,6.17
2023-04-08T13:34:53.591Z,5.87
2023-04-08T13:37:42.331Z,5.87
2023-04-08T13:40:30.732Z,5.70
2023-04-08T13:43:19.114Z,5.90
2023-04-08T13:46:08.267Z,6.30
2023-04-08T13:48:58.156Z,5.73
2023-04-08T13:51:46.806Z,6.37
2023-04-08T13:54:35.122Z,5.50
2023-04-08T13:57:23.390Z,5.37
2023-04-08T14:00:13.141Z,5.70
2023-04-08T14:03:01.779Z,5.20
2023-04-08T14:05:52.451Z,5.73
2023-04-08T14:08:40.899Z,5.83
2023-04-08T14:11:29.228Z,5.63
2023-04-08T14:14:17.640Z,5.43
2023-04-08T14:17:06.020Z,5.07
2023-04-08T14:19:54.463Z,5.57
2023-04-08T14:22:44.162Z,5.40
2023-04-08T14:25:32.646Z,4.80
2023-04-08T14:28:21.183Z,5.27
2023-04-08T14:31:09.691Z,5.57
2023-04-08T14:33:58.100Z,4.80
2023-04-08T14:36:46.574Z,4.70
2023-04-08T14:39:36.598Z,4.90
2023-04-08T14:42:25.052Z,5.20
2023-04-08T14:45:13.417Z,5.60
2023-04-08T14:48:02.185Z,5.33
2023-04-08T14:50:50.842Z,5.30
2023-04-08T14:53:39.461Z,5.23
2023-04-08T14:56:29.135Z,6.07
2023-04-08T14:59:17.526Z,5.93
2023-04-08T15:02:06.218Z,5.77
2023-04-08T15:04:54.614Z,5.67
2023-04-08T15:07:43.336Z,5.57
2023-04-08T15:10:31.796Z,5.57
2023-04-08T15:13:21.729Z,5.70
2023-04-08T15:16:10.222Z,5.60
2023-04-08T15:19:00.549Z,5.53
2023-04-08T15:21:48.948Z,5.60
2023-04-08T15:24:37.907Z,5.87
2023-04-08T15:27:26.538Z,5.60
2023-04-08T15:30:17.338Z,5.53
2023-04-08T15:33:06.270Z,6.00
2023-04-08T15:35:55.078Z,5.53
2023-04-08T15:38:43.309Z,5.60
2023-04-08T15:41:32.734Z,5.40
2023-04-08T15:44:22.526Z,6.03
2023-04-08T15:47:12.336Z,5.70
2023-04-08T15:50:01.016Z,5.40
2023-04-08T15:52:49.511Z,5.90
2023-04-08T15:55:40.120Z,5.60
2023-04-08T15:58:28.867Z,6.00
2023-04-08T16:01:18.817Z,5.30
2023-04-08T16:04:08.680Z,6.10
2023-04-08T16:06:57.035Z,5.10
2023-04-08T16:09:45.481Z,4.80
2023-04-08T16:12:34.002Z,5.00
2023-04-08T16:15:22.595Z,5.30
2023-04-08T16:18:11.568Z,5.07
2023-04-08T16:21:04.557Z,4.93
2023-04-08T16:23:52.999Z,4.83
2023-04-08T16:26:42.140Z,4.80
2023-04-08T16:29:31.213Z,5.23
2023-04-08T16:32:19.690Z,5.20
2023-04-08T16:35:08.903Z,4.80
2023-04-08T16:37:58.710Z,5.20
2023-04-08T16:40:47.270Z,5.20
2023-04-08T16:43:36.261Z,4.97
2023-04-08T16:46:24.622Z,5.40
2023-04-08T16:49:15.000Z,5.37
2023-04-08T16:52:04.498Z,5.40
2023-04-08T16:54:54.769Z,5.53
2023-04-08T16:57:43.288Z,6.13
2023-04-08T17:00:32.282Z,6.00
2023-04-08T17:03:20.862Z,6.30
2023-04-08T17:06:09.759Z,7.13
2023-04-08T17:08:58.159Z,7.03
2023-04-08T17:11:47.964Z,7.23
2023-04-08T17:14:36.680Z,7.63
2023-04-08T17:17:25.014Z,8.10
2023-04-08T17:20:13.645Z,7.27
2023-04-08T17:23:02.176Z,7.60
2023-04-08T17:25:50.564Z,8.00
2023-04-08T17:28:43.760Z,7.87
2023-04-08T17:31:33.121Z,7.60
2023-04-08T17:34:21.542Z,8.00
2023-04-08T17:37:10.455Z,7.37
2023-04-08T17:39:58.886Z,7.67
2023-04-08T17:42:47.604Z,8.40
2023-04-08T17:45:37.353Z,7.87
2023-04-08T17:48:25.779Z,7.50
2023-04-08T17:51:14.169Z,8.30
2023-04-08T17:54:02.506Z,8.40
2023-04-08T17:56:50.866Z,9.00
2023-04-08T17:59:39.160Z,9.10
2023-04-08T18:02:29.211Z,9.33
2023-04-08T18:05:18.723Z,9.30
2023-04-08T18:08:07.625Z,9.30
2023-04-08T18:10:56.403Z,9.47
2023-04-08T18:13:46.235Z,9.20
2023-04-08T18:16:34.845Z,9.70
2023-04-08T18:19:26.728Z,10.40
2023-04-08T18:22:15.631Z,9.83
2023-04-08T18:25:04.643Z,10.13
2023-04-08T18:27:53.014Z,10.13
2023-04-08T18:30:42.807Z,9.70
2023-04-08T18:33:31.628Z,10.87
2023-04-08T18:36:22.909Z,10.60
2023-04-08T18:39:11.909Z,10.20
2023-04-08T18:42:01.204Z,10.20
2023-04-08T18:44:51.586Z,10.70
2023-04-08T18:47:43.006Z,10.47
2023-04-08T18:50:31.722Z,10.57
2023-04-08T18:53:22.090Z,10.77
2023-04-08T18:56:16.038Z,11.50
2023-04-08T18:59:04.538Z,10.37
2023-04-08T19:01:53.533Z,10.93
2023-04-08T19:04:41.974Z,11.73
2023-04-08T19:07:30.604Z,10.97
2023-04-08T19:10:20.533Z,10.70
2023-04-08T19:13:09.034Z,10.33
2023-04-08T19:15:57.671Z,10.80
2023-04-08T19:18:46.020Z,10.57
2023-04-08T19:21:37.864Z,11.20
2023-04-08T19:24:26.520Z,10.80
2023-04-08T19:27:16.283Z,10.10
2023-04-08T19:30:05.305Z,10.80
2023-04-08T19:32:57.252Z,10.50
2023-04-08T19:35:45.823Z,9.93
2023-04-08T19:38:34.388Z,11.13
2023-04-08T19:41:23.453Z,10.07
2023-04-08T19:44:13.110Z,10.00
2023-04-08T19:47:01.310Z,10.33
2023-04-08T19:49:49.660Z,10.43
2023-04-08T19:52:38.038Z,10.00
2023-04-08T19:55:26.762Z,9.83
2023-04-08T19:58:15.124Z,9.70
2023-04-08T20:01:05.056Z,10.23
2023-04-08T20:03:53.624Z,11.03
2023-04-08T20:06:42.011Z,10.47
2023-04-08T20:09:30.872Z,10.43
2023-04-08T20:12:19.462Z,10.30
2023-04-08T20:15:19.188Z,10.70
2023-04-08T20:18:16.698Z,10.50
2023-04-08T20:21:05.543Z,10.20
2023-04-08T20:23:54.025Z,10.30
2023-04-08T20:26:42.319Z,10.30
2023-04-08T20:29:30.749Z,10.60
2023-04-08T20:32:19.193Z,10.07
2023-04-08T20:35:09.404Z,10.53
2023-04-08T20:37:57.922Z,11.07
2023-04-08T20:40:46.435Z,10.30
2023-04-08T20:43:34.906Z,11.00
2023-04-08T20:46:24.608Z,11.67
2023-04-08T20:49:13.249Z,10.47
2023-04-08T20:52:02.990Z,10.50
2023-04-08T20:54:51.287Z,10.40
2023-04-08T20:57:40.691Z,10.70
2023-04-08T21:00:29.135Z,10.50
2023-04-08T21:03:18.120Z,10.67
2023-04-08T21:06:07.975Z,11.83
2023-04-08T21:08:57.854Z,11.30
2023-04-08T21:11:46.435Z,10.63
2023-04-08T21:14:34.979Z,11.20
2023-04-08T21:17:23.333Z,11.40
2023-04-08T21:20:12.992Z,12.10
2023-04-08T21:23:01.283Z,12.20
2023-04-08T21:25:50.990Z,12.10
2023-04-08T21:28:40.255Z,12.37
2023-04-08T21:31:30.612Z,12.37
2023-04-08T21:34:19.267Z,12.37
2023-04-08T21:37:07.824Z,11.80
2023-04-08T21:39:56.196Z,11.40
2023-04-08T21:42:45.763Z,12.20
2023-04-08T21:45:34.135Z,11.77
2023-04-08T21:48:23.480Z,11.90
2023-04-08T21:51:16.488Z,10.97
2023-04-08T21:54:04.953Z,11.60
2023-04-08T21:56:53.187Z,11.80
2023-04-08T21:59:42.852Z,11.23
2023-04-08T22:02:36.928Z,10.60
2023-04-08T22:05:25.769Z,10.40
2023-04-08T22:08:14.759Z,10.83
2023-04-08T22:11:06.587Z,10.90
2023-04-08T22:13:54.929Z,11.10
2023-04-08T22:16:47.647Z,10.80
2023-04-08T22:19:35.981Z,10.47
2023-04-08T22:22:24.302Z,11.10
2023-04-08T22:25:12.889Z,10.93
2023-04-08T22:28:01.387Z,11.00
2023-04-08T22:30:49.880Z,9.80
2023-04-08T22:33:40.267Z,10.53
2023-04-08T22:36:28.443Z,10.20
2023-04-08T22:39:16.866Z,9.47
2023-04-08T22:42:05.139Z,11.03
2023-04-08T22:44:53.511Z,10.67
2023-04-08T22:47:41.873Z,10.50
2023-04-08T22:50:31.572Z,11.20
2023-04-08T22:53:19.851Z,10.87
2023-04-08T22:56:08.287Z,10.10
2023-04-08T22:58:56.772Z,10.20
2023-04-08T23:01:45.316Z,10.20
2023-04-08T23:04:33.734Z,10.10
2023-04-08T23:07:23.605Z,10.27
2023-04-08T23:10:12.124Z,10.70
2023-04-08T23:13:00.441Z,10.30
2023-04-08T23:15:48.754Z,11.00
2023-04-08T23:18:37.030Z,10.53
2023-04-08T23:21:26.168Z,10.60
2023-04-08T23:24:16.034Z,10.73
2023-04-08T23:27:04.453Z,10.70
2023-04-08T23:29:52.701Z,10.37
2023-04-08T23:32:41.074Z,10.60
2023-04-08T23:35:29.515Z,9.83
2023-04-08T23:38:17.937Z,10.45
2023-04-08T23:41:08.386Z,11.03
2023-04-08T23:43:56.721Z,10.53
2023-04-08T23:46:45.016Z,10.77
2023-04-08T23:49:33.427Z,10.37
2023-04-08T23:52:21.675Z,10.00
2023-04-08T23:55:10.803Z,10.43
2023-04-08T23:58:00.580Z,10.67
